Latest Coastal Weather Observations for Melbourne (Olympic Park)

IDV60701

Issued at 9:12 pm EDT Wednesday 7 December 2022 (issued every 10 minutes, with the page automatically refreshed every 10 minutes)

About coastal observations | Map of coastal stations | Coastal observations for VIC | Marine services | Other Formats
Station Details ID: 086338 Name: MELBOURNE (OLYMPIC PARK) Lat: -37.83 Lon: 144.98 Height: 7.53 m
Data from the previous 72 hours. | See also: Recent months at Melbourne (Olympic Park)
Date/Time
EDT
Wind Sea
Height
m
Swell Vis
km
Cloud Weather Temp
°C
Press
MSL
hPa
Rain since
9am
mm
Dir  Spd
kts
Gust
kts
Height
m
Period
s
Dir
07/09:00pm W 8 18 - - - - 10 - Rain 14.0 1007.7 0.0
07/08:30pm W 7 17 - - - - 10 - - 13.8 1007.3 0.0
07/08:00pm W 8 17 - - - - 10 - - 14.6 1006.8 0.0
07/07:30pm SW 8 20 - - - - 10 - - 16.9 1005.8 0.0
07/07:00pm SSW 8 17 - - - - 10 - - 18.4 1004.8 0.0
07/06:30pm S 4 8 - - - - 10 - - 17.7 1004.3 0.0
07/06:00pm SSW 5 11 - - - - 10 - - 17.4 1004.3 0.0
07/05:30pm S 7 12 - - - - 10 - - 17.3 1004.5 0.0
07/05:00pm S 8 15 - - - - 10 - - 17.6 1004.6 0.0
07/04:30pm S 9 18 - - - - 10 - - 17.8 1004.6 0.0
07/04:00pm S 9 16 - - - - 10 - - 17.8 1004.4 0.0
07/03:30pm S 8 16 - - - - 10 - - 17.5 1004.6 0.0
07/03:00pm S 8 16 - - - - 10 - - 18.4 1004.4 0.0
07/02:30pm S 7 13 - - - - 10 - - 18.7 1004.2 0.0
07/02:00pm S 5 11 - - - - 10 - - 18.5 1004.3 0.0
07/01:30pm SSW 9 14 - - - - 10 - - 18.4 1004.6 0.0
07/01:00pm S 7 13 - - - - 10 - - 18.2 1004.5 0.0
07/12:30pm S 8 15 - - - - 10 - - 18.4 1004.6 0.0
07/12:00pm S 8 14 - - - - 10 - - 17.7 1004.8 0.0
07/11:30am SSW 6 11 - - - - 10 - - 17.9 1004.6 0.0
07/11:00am SSW 6 9 - - - - 10 - - 17.8 1004.3 0.0
07/10:30am S 6 11 - - - - 10 - - 17.3 1004.3 0.0
07/10:00am S 4 6 - - - - 10 - - 16.4 1004.3 0.0
07/09:30am S 5 7 - - - - 10 - - 15.9 1004.5 0.0
07/09:00am S 4 7 - - - - 10 - - 16.4 1004.5 0.2
07/08:30am CALM 0 0 - - - - 10 - - 16.2 1004.2 0.2
07/08:00am CALM 0 3 - - - - 10 - - 16.1 1004.1 0.2
07/07:30am CALM 0 0 - - - - 10 - - 15.8 1003.9 0.2
07/07:00am CALM 0 0 - - - - 10 - - 15.1 1003.8 0.2
07/06:30am CALM 0 0 - - - - 10 - - 13.5 1003.8 0.2
07/06:00am NNE 3 5 - - - - 10 - - 13.8 1003.7 0.2
07/05:30am N 5 6 - - - - 10 - - 14.2 1003.9 0.2
07/05:00am N 4 6 - - - - 10 - - 14.5 1003.7 0.2
07/04:30am NE 4 6 - - - - 10 - - 14.5 1003.8 0.2
07/04:00am NE 3 5 - - - - 10 - - 14.4 1004.0 0.2
07/03:30am CALM 0 0 - - - - 10 - - 13.9 1004.4 0.2
07/03:00am CALM 0 0 - - - - 10 - - 13.5 1004.8 0.2
07/02:30am CALM 0 0 - - - - 10 - - 13.4 1005.1 0.2
07/02:00am CALM 0 0 - - - - 10 - - 13.4 1005.4 0.2
07/01:30am CALM 0 0 - - - - 10 - - 13.3 1005.7 0.2
07/01:00am S 1 3 - - - - 10 - - 13.6 1005.9 0.2
07/12:30am CALM 0 0 - - - - 10 - - 13.9 1006.2 0.2
07/12:00am SSE 3 5 - - - - 10 - - 14.0 1006.6 0.2
 
Date/Time
EDT
Wind Sea
Height
m
Swell Vis
km
Cloud Weather Temp
°C
Press
MSL
hPa
Rain since
9am
mm
Dir  Spd
kts
Gust
kts
Height
m
Period
s
Dir
06/11:30pm CALM 0 0 - - - - 10 - - 14.2 1007.0 0.2
06/11:00pm S 3 6 - - - - 10 - - 14.8 1007.1 0.2
06/10:30pm SE 3 4 - - - - 10 - - 15.4 1007.3 0.2
06/10:00pm SSE 3 6 - - - - 10 - - 15.8 1007.5 0.2
06/09:30pm SE 3 6 - - - - 10 - - 16.6 1007.5 0.2
06/09:00pm SE 4 8 - - - - 10 - - 17.3 1007.3 0.2
06/08:30pm SE 5 9 - - - - 10 - - 17.7 1007.2 0.2
06/08:00pm SE 5 9 - - - - 10 - - 18.2 1007.3 0.2
06/07:30pm SSE 5 8 - - - - 10 - - 19.0 1007.3 0.2
06/07:00pm SSE 4 8 - - - - 10 - - 19.5 1007.3 0.2
06/06:30pm S 6 8 - - - - 10 - - 19.2 1007.4 0.2
06/06:00pm S 7 13 - - - - 10 - - 19.0 1007.7 0.2
06/05:30pm S 8 15 - - - - 10 - - 18.9 1007.7 0.2
06/05:00pm SSW 9 15 - - - - 10 - - 19.5 1008.1 0.2
06/04:30pm SSW 7 13 - - - - 10 - - 18.8 1008.5 0.2
06/04:00pm SSW 7 13 - - - - 10 - - 19.4 1008.5 0.2
06/03:30pm SSW 7 12 - - - - 10 - - 19.3 1008.7 0.2
06/03:00pm S 7 13 - - - - 10 - - 19.2 1008.9 0.2
06/02:30pm SSW 9 15 - - - - 10 - - 19.1 1009.1 0.2
06/02:00pm SSW 9 15 - - - - 10 - - 19.4 1009.6 0.2
06/01:30pm SSW 9 14 - - - - 10 - - 19.0 1009.9 0.2
06/01:00pm SSW 8 13 - - - - 10 - - 18.0 1010.3 0.0
06/12:30pm SSW 7 12 - - - - 10 - - 18.8 1010.5 0.0
06/12:00pm SSW 6 10 - - - - 10 - - 18.1 1010.7 0.0
06/11:30am S 6 9 - - - - 10 - - 18.2 1010.7 0.0
06/11:00am SE 6 9 - - - - 10 - - 18.0 1010.8 0.0
06/10:30am E 5 9 - - - - 10 - - 17.6 1011.1 0.0
06/10:00am SE 5 7 - - - - 10 - - 17.0 1011.5 0.0
06/09:30am ESE 7 13 - - - - 10 - - 16.2 1011.9 0.0
06/09:00am SE 9 14 - - - - 10 - - 15.5 1012.1 1.2
06/08:30am SE 7 12 - - - - 10 - - 14.8 1012.0 1.2
06/08:00am SE 6 11 - - - - 10 - - 14.8 1011.9 1.2
06/07:30am SE 6 10 - - - - 10 - - 15.2 1011.4 1.2
06/07:00am SSE 5 10 - - - - 10 - - 14.1 1011.2 1.2
06/06:30am SSE 5 8 - - - - 10 - - 14.0 1011.2 1.2
06/06:00am S 4 7 - - - - 10 - - 13.9 1011.0 1.2
06/05:30am SSE 5 8 - - - - 10 - - 14.0 1010.9 1.2
06/05:00am SSE 5 9 - - - - 10 - - 14.1 1010.8 1.2
06/04:30am SSE 5 8 - - - - 10 - - 14.3 1010.8 1.2
06/04:00am SSE 5 7 - - - - 10 - - 14.1 1010.8 1.2
06/03:30am SSE 6 11 - - - - 10 - - 14.2 1010.8 1.2
06/03:00am S 7 14 - - - - 10 - - 14.8 1010.7 1.2
06/02:30am SSW 6 13 - - - - 10 - - 14.6 1010.9 1.2
06/02:00am SW 5 11 - - - - 10 - - 14.0 1011.2 1.2
06/01:38am SW 6 14 - - - - 10 - - 13.8 1011.5 1.2
06/01:30am SSW 5 10 - - - - 10 - - 13.8 1011.5 1.2
06/01:00am SW 5 10 - - - - 7 - - 13.5 1011.9 0.6
06/12:44am SW 7 13 - - - - 7 - - 13.5 1012.2 0.4
06/12:30am SW 6 12 - - - - 9 - - 13.5 1012.4 0.4
06/12:00am SW 8 15 - - - - 10 - - 14.0 1012.8 0.2
 
Date/Time
EDT
Wind Sea
Height
m
Swell Vis
km
Cloud Weather Temp
°C
Press
MSL
hPa
Rain since
9am
mm
Dir  Spd
kts
Gust
kts
Height
m
Period
s
Dir
05/11:30pm SSW 7 17 - - - - 10 - - 14.1 1012.9 0.2
05/11:00pm S 9 17 - - - - 10 - - 14.0 1013.3 0.2
05/10:30pm S 11 20 - - - - 10 - - 14.0 1013.4 0.2
05/10:00pm SSW 6 13 - - - - 10 - - 13.8 1013.4 0.2
05/09:30pm SSW 8 19 - - - - 10 - - 13.7 1013.2 0.2
05/09:00pm SSW 8 16 - - - - 9 - Showers 13.4 1013.2 0.0
05/08:30pm SSW 9 22 - - - - 9 - - 13.9 1013.1 0.0
05/08:00pm SSW 7 15 - - - - 10 - - 15.1 1012.8 0.0
05/07:30pm SSW 9 17 - - - - 10 - - 15.3 1012.6 0.0
05/07:00pm S 8 18 - - - - 10 - - 15.5 1012.3 0.0
05/06:30pm SSW 8 15 - - - - 10 - - 15.4 1012.1 0.0
05/06:00pm SSW 9 18 - - - - 10 - - 15.7 1011.9 0.0
05/05:30pm S 8 20 - - - - 10 - - 16.2 1011.7 0.0
05/05:00pm SSW 9 19 - - - - 10 - - 16.7 1011.6 0.0
05/04:30pm SSW 7 18 - - - - 10 - - 17.6 1011.5 0.0
05/04:00pm SSW 10 22 - - - - 10 - - 17.2 1011.5 0.0
05/03:30pm SSW 6 15 - - - - 10 - - 17.4 1011.5 0.0
05/03:00pm SSW 9 17 - - - - 10 - - 16.3 1011.7 0.0
05/02:30pm SSW 8 15 - - - - 10 - - 16.8 1011.7 0.0
05/02:00pm S 10 20 - - - - 10 - - 16.7 1011.7 0.0
05/01:30pm SSW 8 16 - - - - 10 - - 16.6 1011.6 0.0
05/01:00pm S 9 17 - - - - 10 - - 16.8 1011.6 0.0
05/12:30pm SSW 10 20 - - - - 10 - - 16.9 1011.5 0.0
05/12:00pm S 8 21 - - - - 10 - - 17.2 1011.1 0.0
05/11:30am S 13 23 - - - - 10 - - 16.7 1010.8 0.0
05/11:00am SSW 7 16 - - - - 10 - - 16.4 1010.5 0.0
05/10:30am SSW 10 18 - - - - 10 - - 16.0 1010.4 0.0
05/10:00am SSW 9 20 - - - - 10 - - 15.1 1010.0 0.0
05/09:30am SSW 9 16 - - - - 10 - - 16.5 1009.7 0.0
05/09:00am SSW 7 14 - - - - 10 - - 16.6 1009.6 0.0
05/08:30am SSW 7 14 - - - - 10 - - 16.4 1009.4 0.0
05/08:00am SSW 6 12 - - - - 10 - - 17.0 1009.2 0.0
05/07:30am SSW 8 14 - - - - 10 - - 17.0 1008.9 0.0
05/07:00am WSW 6 10 - - - - 10 - - 17.3 1008.4 0.0
05/06:30am W 6 13 - - - - 10 - - 17.5 1008.5 0.0
05/06:00am WSW 7 13 - - - - 10 - Rain 17.6 1007.9 0.0
05/05:30am WSW 4 8 - - - - 10 - - 17.6 1007.6 0.0
05/05:00am WSW 5 9 - - - - 10 - - 17.6 1007.1 0.0
05/04:30am WSW 7 14 - - - - 10 - - 18.1 1007.5 0.0
05/04:00am WSW 7 14 - - - - 10 - - 18.1 1006.9 0.0
05/03:30am SW 5 11 - - - - 10 - - 18.0 1006.3 0.0
05/03:00am SW 5 11 - - - - 10 - - 18.5 1006.2 0.0
05/02:30am SSW 5 9 - - - - 10 - - 19.0 1006.2 0.0
05/02:00am SSW 5 9 - - - - 10 - - 18.8 1006.4 0.0
05/01:30am SSW 6 11 - - - - 10 - - 19.1 1006.7 0.0
05/01:00am SSW 9 15 - - - - 10 - - 19.7 1006.3 0.0
05/12:30am SSW 8 14 - - - - 10 - - 20.8 1006.6 0.0
05/12:00am SW 8 17 - - - - 10 - - 22.9 1006.1 0.0
 
Date/Time
EDT
Wind Sea
Height
m
Swell Vis
km
Cloud Weather Temp
°C
Press
MSL
hPa
Rain since
9am
mm
Dir  Spd
kts
Gust
kts
Height
m
Period
s
Dir
04/11:57pm SW 9 16 - - - - 10 - - 23.3 1005.9 0.0
04/11:30pm NW 5 9 - - - - 10 - - 28.3 1004.3 0.0
04/11:00pm N 6 10 - - - - 10 - - 28.1 1004.0 0.0
04/10:30pm NNW 5 11 - - - - 10 - - 28.3 1004.2 0.0
04/10:00pm N 5 9 - - - - 10 - - 28.8 1004.5 0.0
04/09:30pm NNW 1 5 - - - - 10 - - 27.2 1004.7 0.0

Other formats

Comma delimited format used in spreadsheet applications
http://www.bom.gov.au/fwo/IDV60701/IDV60701.95936.axf

JavaScript Object Notation format (JSON) in row-major order
http://www.bom.gov.au/fwo/IDV60701/IDV60701.95936.json

Data quality

Most of these data are generated automatically and are frequently updated. Quality checks on data are not normally performed. It is possible for incorrect values to appear. Refer to information at About Latest Weather Observations and please check the disclaimer before using these data.